Fort Worth Alliance Airport
KAFW : now visible

Airfield :











YOU CAN JOIN US ON...

 
LOGIN :

Register | Disclaimer

   EN    FR    IT 

 









Legend :    VFR   Marginal VFR   IFR   Intensive IFR   Very Intensive IFR
Visi :
Ceiling :
>= 8 km
>= 3000ft
5 to 8 km
1000 to 3000 ft
1500m to 5 km
500 to 1000 ft
800 to 1500m
200 to 500 ft
< 800m
< 200 ft
Symbols :   Thunderstorms  Fog  Heavy snow  Heavy precipitations  Wind > 20 kt






- Airport Elevation : 722 ft


KAFW - Fort Worth Alliance

CURRENT METAR :
  • 282153Z 29017G24KT 10SM FEW030 SCT049 SCT300 13/07 A2977 RMK AO2 PK WND 29027/2136 LTG DSNT NE AND E RAB2055E17B39E48 TSE48 SLP081 CB DSNT NE-SE MOV NE P0010 T01280067

EXPIRED METARs :
  • 282112Z 32009KT 7SM -TSRA SCT027CB BKN045 BKN100 BKN300 14/10 A2974 RMK AO2 LTG DSNT N RAB2055 OCNL LTGICCG OHD-VC N TS OHD-VC N MOV NE CB DSNT N MOV NE P0010 T01440100
  • 282053Z 18012KT 10SM TS BKN027CB BKN050 BKN110 BKN300 17/11 A2972 RMK AO2 TSB49 SLP060 OCNL LTGICCG VC SE-S TS VC SE-S MOV NE CB VC SW-N MOV NE VCSH NW-OHD
  • 282027Z 17012KT 10SM BKN025TCU BKN100 BKN250 17/11 A2973 RMK AO2 TCU S-OHD,W-N T01720106
  • 281953Z 17013KT 10SM SCT020 SCT045TCU 17/11 A2974 RMK AO2 SLP068 TCU DSNT SW/W-NW T01720106

TAF KAFW
Valid from the 28 at 22:00 until the 29 at 18:00 UTC


282133Z 2822/2918 29011KT P6SM VCTS SCT025CB BKN050
FM282230 30015G25KT P6SM BKN035
FM290000 30016G26KT P6SM OVC015
FM290300 33018G28KT P6SM OVC015



MET'MAP, your aeronautical weather chart ! - Copyright ORBIFLY December 2007 - Disclaimer

ORBIFLY MET'MAP TEAM :

Programming & Development : Alexandra Zaïnal
Concept & original design : Baudouin d'Aumeries
Assistance for programming : Marc-Olivier Méhu
Technical & hardware support : Manuel Goepfert

Contact : metmap@orbifly.com




SOURCES & CREDITS :

   NOAA       Earth
Advisory